createdAt,value
2019-05-19T00:00:50.242Z,73.73
2019-05-19T00:01:55.629Z,73.59
2019-05-19T00:03:01.243Z,73.48
2019-05-19T00:04:06.706Z,73.31
2019-05-19T00:05:12.523Z,73.24
2019-05-19T00:06:17.843Z,73.13
2019-05-19T00:07:23.620Z,73.03
2019-05-19T00:08:28.922Z,72.97
2019-05-19T00:09:34.047Z,72.88
2019-05-19T00:10:40.086Z,72.89
2019-05-19T00:11:45.238Z,72.87
2019-05-19T00:12:50.632Z,72.87
2019-05-19T00:13:56.048Z,72.82
2019-05-19T00:15:01.676Z,72.82
2019-05-19T00:16:06.897Z,72.82
2019-05-19T00:17:12.370Z,72.77
2019-05-19T00:18:17.472Z,72.79
2019-05-19T00:19:26.767Z,72.73
2019-05-19T00:20:30.115Z,72.63
2019-05-19T00:21:35.501Z,72.59
2019-05-19T00:22:40.748Z,72.51
2019-05-19T00:23:46.097Z,72.28
2019-05-19T00:24:51.335Z,72.22
2019-05-19T00:25:56.974Z,72.15
2019-05-19T00:27:02.180Z,72.11
2019-05-19T00:28:07.665Z,72.08
2019-05-19T00:29:12.865Z,72.02
2019-05-19T00:30:18.396Z,71.96
2019-05-19T00:31:24.053Z,71.94
2019-05-19T00:32:29.387Z,72.00
2019-05-19T00:33:35.357Z,72.05
2019-05-19T00:34:41.258Z,72.10
2019-05-19T00:35:46.441Z,72.13
2019-05-19T00:36:51.755Z,72.18
2019-05-19T00:37:57.434Z,72.27
2019-05-19T00:39:02.722Z,72.38
2019-05-19T00:40:08.487Z,72.48
2019-05-19T00:41:13.923Z,72.60
2019-05-19T00:42:19.529Z,72.66
2019-05-19T00:43:25.199Z,72.76
2019-05-19T00:44:31.110Z,72.88
2019-05-19T00:45:36.572Z,72.99
2019-05-19T00:46:41.875Z,73.07
2019-05-19T00:47:47.255Z,73.16
2019-05-19T00:48:52.915Z,73.28
2019-05-19T00:49:58.243Z,73.42
2019-05-19T00:51:03.532Z,73.53
2019-05-19T00:52:08.816Z,73.61
2019-05-19T00:53:14.408Z,73.73
2019-05-19T00:54:20.282Z,73.84
2019-05-19T00:55:25.629Z,73.95
2019-05-19T00:56:31.507Z,74.05
2019-05-19T00:57:38.266Z,74.14
2019-05-19T00:58:45.527Z,74.21
2019-05-19T00:59:52.210Z,74.29
2019-05-19T01:00:57.891Z,74.38
2019-05-19T01:02:03.489Z,74.46
2019-05-19T01:03:08.842Z,74.54
2019-05-19T01:04:14.058Z,74.61
2019-05-19T01:05:20.797Z,74.66
2019-05-19T01:06:26.041Z,74.77
2019-05-19T01:07:32.071Z,74.87
2019-05-19T01:08:37.209Z,74.94
2019-05-19T01:09:42.664Z,75.04
2019-05-19T01:10:48.191Z,75.10
2019-05-19T01:11:53.908Z,75.16
2019-05-19T01:12:59.126Z,75.20
2019-05-19T01:14:04.883Z,75.23
2019-05-19T01:15:11.146Z,75.29
2019-05-19T01:16:17.177Z,75.41
2019-05-19T01:17:22.675Z,75.48
2019-05-19T01:18:28.266Z,75.54
2019-05-19T01:19:33.929Z,75.61
2019-05-19T01:20:39.455Z,75.69
2019-05-19T01:21:45.594Z,75.76
2019-05-19T01:22:51.078Z,75.77
2019-05-19T01:23:56.967Z,75.79
2019-05-19T01:25:02.296Z,75.82
2019-05-19T01:26:07.531Z,75.83
2019-05-19T01:27:12.953Z,75.90
2019-05-19T01:28:18.380Z,75.93
2019-05-19T01:29:23.713Z,75.95
2019-05-19T01:30:28.944Z,75.98
2019-05-19T01:31:36.429Z,76.01
2019-05-19T01:32:41.923Z,76.07
2019-05-19T01:33:47.233Z,76.13
2019-05-19T01:34:52.679Z,76.15
2019-05-19T01:35:58.264Z,76.17
2019-05-19T01:37:03.410Z,76.23
2019-05-19T01:38:08.744Z,76.23
2019-05-19T01:39:13.961Z,76.26
2019-05-19T01:40:19.632Z,76.30
2019-05-19T01:41:24.789Z,76.33
2019-05-19T01:42:30.099Z,76.33
2019-05-19T01:43:35.334Z,76.33
2019-05-19T01:44:40.981Z,76.32
2019-05-19T01:45:46.188Z,76.33
2019-05-19T01:46:51.494Z,76.29
2019-05-19T01:47:56.969Z,76.29
2019-05-19T01:49:02.348Z,76.35
2019-05-19T01:50:17.405Z,76.43
2019-05-19T01:51:15.271Z,76.52
2019-05-19T01:52:20.500Z,76.60
2019-05-19T01:53:25.921Z,76.65
2019-05-19T01:54:31.184Z,76.72
2019-05-19T01:55:36.860Z,76.76
2019-05-19T01:56:42.658Z,76.80
2019-05-19T01:57:48.303Z,76.83
2019-05-19T01:58:53.433Z,76.91
2019-05-19T01:59:58.833Z,76.94
2019-05-19T02:01:04.135Z,76.97
2019-05-19T02:02:09.574Z,76.98
2019-05-19T02:03:14.781Z,76.98
2019-05-19T02:04:20.086Z,76.97
2019-05-19T02:05:25.233Z,76.97
2019-05-19T02:06:30.568Z,76.97
2019-05-19T02:07:35.880Z,76.95
2019-05-19T02:08:41.284Z,76.95
2019-05-19T02:09:46.553Z,76.94
2019-05-19T02:10:52.241Z,76.92
2019-05-19T02:11:57.734Z,76.93
2019-05-19T02:13:05.176Z,76.91
2019-05-19T02:14:10.005Z,76.88
2019-05-19T02:15:16.999Z,76.88
2019-05-19T02:16:22.109Z,76.90
2019-05-19T02:17:27.422Z,76.89
2019-05-19T02:18:35.415Z,76.90
2019-05-19T02:19:41.257Z,76.92
2019-05-19T02:20:47.640Z,76.93
2019-05-19T02:21:53.347Z,76.95
2019-05-19T02:22:58.543Z,76.97
2019-05-19T02:24:04.020Z,76.95
2019-05-19T02:25:09.639Z,76.95
2019-05-19T02:26:14.962Z,76.92
2019-05-19T02:27:20.075Z,76.89
2019-05-19T02:28:25.454Z,76.87
2019-05-19T02:29:30.878Z,76.87
2019-05-19T02:30:36.390Z,76.83
2019-05-19T02:31:41.612Z,76.83
2019-05-19T02:32:46.910Z,76.80
2019-05-19T02:33:52.333Z,76.82
2019-05-19T02:34:57.898Z,76.88
2019-05-19T02:36:03.090Z,76.94
2019-05-19T02:37:08.750Z,77.02
2019-05-19T02:38:14.289Z,77.09
2019-05-19T02:39:20.212Z,77.17
2019-05-19T02:40:25.600Z,77.27
2019-05-19T02:41:32.857Z,77.33
2019-05-19T02:42:41.590Z,77.39
2019-05-19T02:43:48.302Z,77.43
2019-05-19T02:44:54.003Z,77.52
2019-05-19T02:46:02.209Z,77.58
2019-05-19T02:47:09.295Z,77.64
2019-05-19T02:48:15.190Z,77.73
2019-05-19T02:49:23.365Z,77.72
2019-05-19T02:50:30.800Z,77.72
2019-05-19T02:51:36.723Z,77.71
2019-05-19T02:52:44.628Z,77.71
2019-05-19T02:53:50.741Z,77.73
2019-05-19T02:54:56.764Z,77.76
2019-05-19T02:56:05.113Z,77.81
2019-05-19T02:57:10.512Z,77.86
2019-05-19T02:58:17.042Z,77.90
2019-05-19T02:59:23.207Z,77.94
2019-05-19T03:00:38.868Z,78.00
2019-05-19T03:02:21.434Z,78.00
2019-05-19T03:03:26.400Z,78.01
2019-05-19T03:04:32.565Z,78.00
2019-05-19T03:05:38.244Z,78.07
2019-05-19T03:06:43.796Z,78.12
2019-05-19T03:07:48.722Z,78.16
2019-05-19T03:08:54.210Z,78.20
2019-05-19T03:09:59.452Z,78.29
2019-05-19T03:11:05.270Z,78.31
2019-05-19T03:12:10.598Z,78.34
2019-05-19T03:13:16.183Z,78.35
2019-05-19T03:14:21.126Z,78.41
2019-05-19T03:15:26.626Z,78.38
2019-05-19T03:16:31.874Z,78.40
2019-05-19T03:17:37.920Z,78.44
2019-05-19T03:18:42.928Z,78.46
2019-05-19T03:19:48.414Z,78.51
2019-05-19T03:21:09.902Z,78.56
2019-05-19T03:22:01.083Z,78.63
2019-05-19T03:23:06.037Z,78.67
2019-05-19T03:24:13.289Z,78.71
2019-05-19T03:25:18.656Z,78.74
2019-05-19T03:47:05.264Z,78.91
2019-05-19T03:48:11.058Z,78.82
2019-05-19T03:49:16.299Z,78.76
2019-05-19T03:50:21.877Z,78.76
2019-05-19T03:51:31.346Z,78.78
2019-05-19T03:52:34.633Z,78.79
2019-05-19T03:53:39.885Z,78.87
2019-05-19T03:54:45.458Z,78.94
2019-05-19T03:55:50.913Z,79.03
2019-05-19T03:56:56.691Z,79.00
2019-05-19T03:58:01.662Z,78.99
2019-05-19T03:59:07.151Z,79.02
2019-05-19T04:00:13.428Z,78.98
2019-05-19T04:01:19.150Z,78.95
2019-05-19T04:02:24.101Z,78.85
2019-05-19T04:03:29.618Z,78.80
2019-05-19T04:04:34.576Z,78.80
2019-05-19T04:05:40.209Z,78.80
2019-05-19T04:06:45.164Z,78.76
2019-05-19T04:07:51.016Z,78.71
2019-05-19T04:08:56.283Z,78.68
2019-05-19T04:10:02.202Z,78.70
2019-05-19T04:11:10.378Z,78.74
2019-05-19T04:12:16.133Z,78.77
2019-05-19T04:13:21.450Z,78.80
2019-05-19T04:14:27.247Z,78.88
2019-05-19T04:15:32.854Z,78.96
2019-05-19T04:16:38.617Z,79.06
2019-05-19T04:17:43.795Z,79.08
2019-05-19T04:18:49.369Z,79.07
2019-05-19T04:19:54.374Z,79.05
2019-05-19T04:21:00.182Z,79.04
2019-05-19T04:22:05.180Z,79.05
2019-05-19T04:23:10.760Z,79.10
2019-05-19T04:24:15.926Z,79.17
2019-05-19T04:25:22.044Z,79.19
2019-05-19T04:26:26.983Z,79.19
2019-05-19T04:27:32.501Z,79.15
2019-05-19T04:28:37.449Z,79.11
2019-05-19T04:29:43.070Z,79.06
2019-05-19T04:30:48.438Z,79.04
2019-05-19T04:31:53.945Z,79.02
2019-05-19T04:32:59.127Z,79.00
2019-05-19T04:34:04.781Z,79.02
2019-05-19T04:35:09.870Z,79.07
2019-05-19T04:36:15.391Z,79.08
2019-05-19T04:37:20.390Z,79.12
2019-05-19T04:38:25.884Z,79.15
2019-05-19T04:39:30.898Z,79.11
2019-05-19T04:40:36.643Z,79.11
2019-05-19T04:41:41.603Z,79.11
2019-05-19T04:42:47.377Z,79.10
2019-05-19T04:43:52.358Z,79.11
2019-05-19T04:44:58.162Z,79.12
2019-05-19T04:46:03.122Z,79.12
2019-05-19T04:47:08.649Z,79.11
2019-05-19T04:48:13.694Z,79.09
2019-05-19T04:49:19.222Z,79.02
2019-05-19T04:50:24.334Z,78.95
2019-05-19T04:51:29.907Z,78.83
2019-05-19T04:52:35.695Z,78.71
2019-05-19T04:53:41.499Z,78.59
2019-05-19T04:54:46.686Z,78.45
2019-05-19T04:55:52.470Z,78.34
2019-05-19T04:56:57.393Z,78.21
2019-05-19T04:58:04.326Z,78.10
2019-05-19T04:59:09.176Z,77.97
2019-05-19T05:00:15.649Z,77.85
2019-05-19T05:01:20.791Z,77.77
2019-05-19T05:02:26.338Z,77.69
2019-05-19T05:03:31.532Z,77.62
2019-05-19T05:04:37.365Z,77.56
2019-05-19T05:05:42.572Z,77.56
2019-05-19T05:06:49.815Z,77.49
2019-05-19T05:07:55.524Z,77.48
2019-05-19T05:09:01.382Z,77.44
2019-05-19T05:10:07.820Z,77.44
2019-05-19T05:11:13.618Z,77.37
2019-05-19T05:12:18.659Z,77.30
2019-05-19T05:13:24.492Z,77.23
2019-05-19T05:14:30.039Z,77.14
2019-05-19T05:15:35.523Z,77.06
2019-05-19T05:16:40.558Z,76.98
2019-05-19T05:17:46.552Z,76.97
2019-05-19T05:18:51.505Z,76.92
2019-05-19T05:19:57.071Z,76.86
2019-05-19T05:21:02.007Z,76.78
2019-05-19T05:22:21.240Z,76.79
2019-05-19T05:23:14.248Z,76.73
2019-05-19T05:24:20.260Z,76.61
2019-05-19T05:25:25.263Z,76.58
2019-05-19T05:26:30.844Z,76.56
2019-05-19T05:27:36.059Z,76.51
2019-05-19T05:28:41.892Z,76.52
2019-05-19T05:29:46.910Z,76.48
2019-05-19T05:30:52.717Z,76.45
2019-05-19T05:31:58.068Z,76.44
2019-05-19T05:33:03.679Z,76.40
2019-05-19T05:34:08.757Z,76.35
2019-05-19T05:35:14.387Z,76.29
2019-05-19T05:36:19.523Z,76.25
2019-05-19T05:37:25.019Z,76.17
2019-05-19T05:38:30.005Z,76.12
2019-05-19T05:39:35.499Z,76.10
2019-05-19T05:40:40.676Z,76.06
2019-05-19T05:41:46.293Z,75.96
2019-05-19T05:42:51.512Z,75.95
2019-05-19T05:43:57.097Z,75.89
2019-05-19T05:45:02.286Z,75.88
2019-05-19T05:46:07.854Z,75.81
2019-05-19T05:47:13.027Z,75.78
2019-05-19T05:48:18.744Z,75.71
2019-05-19T05:49:23.671Z,75.66
2019-05-19T05:50:29.745Z,75.64
2019-05-19T05:51:35.044Z,75.55
2019-05-19T05:52:40.888Z,75.53
2019-05-19T05:53:45.907Z,75.49
2019-05-19T05:54:51.505Z,75.39
2019-05-19T05:55:56.807Z,75.29
2019-05-19T05:57:02.553Z,75.22
2019-05-19T05:58:07.568Z,75.21
2019-05-19T05:59:13.051Z,75.12
2019-05-19T06:00:19.431Z,75.03
2019-05-19T06:01:25.292Z,74.89
2019-05-19T06:02:30.308Z,74.76
2019-05-19T06:03:35.866Z,74.65
2019-05-19T06:04:41.131Z,74.53
2019-05-19T06:05:46.759Z,74.45
2019-05-19T06:06:51.708Z,74.45
2019-05-19T06:07:57.240Z,74.26
2019-05-19T06:09:02.532Z,74.17
2019-05-19T06:10:09.206Z,74.04
2019-05-19T06:11:14.585Z,73.85
2019-05-19T06:12:20.271Z,73.77
2019-05-19T06:13:25.301Z,73.61
2019-05-19T06:14:30.876Z,73.51
2019-05-19T06:15:36.128Z,73.39
2019-05-19T06:16:42.180Z,73.29
2019-05-19T06:17:47.183Z,73.22
2019-05-19T06:18:52.712Z,73.21
2019-05-19T06:19:57.687Z,73.14
2019-05-19T06:21:03.431Z,73.00
2019-05-19T06:33:40.117Z,71.42
2019-05-19T06:34:46.031Z,71.28
2019-05-19T06:35:51.158Z,71.22
2019-05-19T06:36:57.164Z,71.19
2019-05-19T06:38:02.905Z,71.08
2019-05-19T06:39:09.006Z,70.99
2019-05-19T06:40:14.267Z,70.93
2019-05-19T06:41:19.863Z,70.86
2019-05-19T06:42:24.792Z,70.80
2019-05-19T06:43:30.308Z,70.64
2019-05-19T06:44:35.196Z,70.55
2019-05-19T06:45:40.773Z,70.49
2019-05-19T06:46:45.707Z,70.46
2019-05-19T06:47:51.228Z,70.43
2019-05-19T06:48:56.464Z,70.32
2019-05-19T06:50:02.395Z,70.17
2019-05-19T06:51:07.400Z,69.97
2019-05-19T06:52:12.965Z,69.84
2019-05-19T06:53:18.252Z,69.64
2019-05-19T06:54:23.735Z,69.43
2019-05-19T06:55:28.724Z,69.22
2019-05-19T06:56:34.184Z,69.09
2019-05-19T06:57:39.112Z,68.99
2019-05-19T06:58:44.611Z,68.89
2019-05-19T06:59:49.584Z,68.89
2019-05-19T07:00:55.113Z,68.91
2019-05-19T07:02:00.090Z,68.79
2019-05-19T07:03:05.665Z,68.76
2019-05-19T07:04:10.673Z,68.71
2019-05-19T07:05:16.326Z,68.65
2019-05-19T07:06:21.566Z,68.60
2019-05-19T07:07:27.050Z,68.48
2019-05-19T07:08:32.464Z,68.37
2019-05-19T07:09:38.115Z,68.21
2019-05-19T07:10:43.207Z,67.93
2019-05-19T07:11:48.868Z,67.73
2019-05-19T07:12:54.053Z,67.51
2019-05-19T07:14:02.897Z,67.33
2019-05-19T07:15:07.504Z,67.26
2019-05-19T07:16:13.233Z,67.15
2019-05-19T07:17:18.157Z,66.97
2019-05-19T07:18:23.747Z,66.91
2019-05-19T07:19:28.798Z,66.86
2019-05-19T07:20:34.392Z,66.85
2019-05-19T07:21:39.666Z,66.73
2019-05-19T07:22:45.165Z,66.67
2019-05-19T07:23:50.167Z,66.64
2019-05-19T07:24:56.631Z,66.58
2019-05-19T07:26:01.593Z,66.59
2019-05-19T07:27:09.986Z,66.69
2019-05-19T07:28:15.244Z,66.66
2019-05-19T07:29:20.844Z,66.56
2019-05-19T07:30:26.169Z,66.46
2019-05-19T07:31:32.253Z,66.35
2019-05-19T07:32:37.259Z,66.29
2019-05-19T07:33:43.391Z,66.26
2019-05-19T07:34:48.654Z,66.23
2019-05-19T07:35:54.150Z,66.17
2019-05-19T07:36:59.418Z,66.11
2019-05-19T07:38:07.435Z,66.10
2019-05-19T07:39:12.024Z,66.09
2019-05-19T07:40:17.708Z,66.05
2019-05-19T07:41:22.652Z,66.02
2019-05-19T07:42:28.240Z,66.06
2019-05-19T07:43:33.471Z,65.97
2019-05-19T07:44:39.479Z,65.88
2019-05-19T07:45:44.736Z,65.66
2019-05-19T07:46:50.207Z,65.47
2019-05-19T07:47:55.255Z,65.33
2019-05-19T07:49:01.012Z,65.12
2019-05-19T07:50:06.008Z,64.91
2019-05-19T07:51:11.747Z,64.80
2019-05-19T07:52:16.734Z,64.80
2019-05-19T07:53:22.243Z,64.79
2019-05-19T07:54:27.474Z,64.78
2019-05-19T07:55:33.026Z,64.78
2019-05-19T07:56:37.949Z,64.74
2019-05-19T07:57:43.700Z,64.78
2019-05-19T07:58:48.707Z,64.87
2019-05-19T07:59:54.201Z,64.89
2019-05-19T08:00:59.267Z,64.89
2019-05-19T08:02:04.902Z,64.89
2019-05-19T08:03:09.912Z,64.90
2019-05-19T08:04:15.439Z,64.87
2019-05-19T08:05:20.498Z,64.83
2019-05-19T08:06:26.227Z,64.74
2019-05-19T08:07:31.523Z,64.72
2019-05-19T08:08:37.009Z,64.77
2019-05-19T08:09:42.263Z,64.80
2019-05-19T08:10:47.771Z,64.89
2019-05-19T08:11:52.765Z,64.85
2019-05-19T08:12:58.245Z,64.79
2019-05-19T08:14:03.335Z,64.71
2019-05-19T08:15:09.609Z,64.64
2019-05-19T08:16:14.608Z,64.52
2019-05-19T08:17:20.189Z,64.38
2019-05-19T08:18:25.624Z,64.34
2019-05-19T08:19:31.138Z,64.30
2019-05-19T08:20:36.188Z,64.27
2019-05-19T08:21:41.740Z,64.25
2019-05-19T08:22:46.781Z,64.21
2019-05-19T08:24:00.360Z,64.13
2019-05-19T08:24:59.915Z,64.06
2019-05-19T08:26:06.127Z,63.95
2019-05-19T08:27:11.149Z,63.90
2019-05-19T08:28:16.700Z,63.86
2019-05-19T08:29:21.944Z,63.91
2019-05-19T08:30:27.485Z,63.96
2019-05-19T08:31:33.072Z,63.98
2019-05-19T08:32:38.656Z,63.95
2019-05-19T08:33:43.869Z,63.86
2019-05-19T08:34:49.398Z,63.71
2019-05-19T08:35:54.435Z,63.49
2019-05-19T08:37:00.178Z,63.33
2019-05-19T08:38:05.211Z,63.10
2019-05-19T08:39:10.873Z,62.90
2019-05-19T08:40:16.307Z,62.79
2019-05-19T08:41:22.086Z,62.61
2019-05-19T08:42:27.018Z,62.53
2019-05-19T08:43:32.556Z,62.43
2019-05-19T08:44:37.750Z,62.37
2019-05-19T08:45:43.285Z,62.38
2019-05-19T08:46:48.317Z,62.36
2019-05-19T08:47:53.798Z,62.43
2019-05-19T08:48:58.727Z,62.44
2019-05-19T08:50:04.553Z,62.31
2019-05-19T08:51:09.824Z,62.08
2019-05-19T08:52:15.340Z,61.86
2019-05-19T08:53:20.336Z,61.69
2019-05-19T08:54:26.152Z,61.54
2019-05-19T08:55:31.167Z,61.47
2019-05-19T08:56:36.816Z,61.21
2019-05-19T08:57:41.823Z,61.07
2019-05-19T08:58:47.614Z,61.00
2019-05-19T08:59:52.640Z,60.89
2019-05-19T09:00:58.152Z,60.87
2019-05-19T09:02:03.142Z,60.92
2019-05-19T09:03:08.917Z,60.92
2019-05-19T09:04:13.840Z,61.07
2019-05-19T09:05:19.576Z,61.18
2019-05-19T09:06:24.634Z,61.23
2019-05-19T09:07:30.390Z,61.33
2019-05-19T09:08:35.658Z,61.32
2019-05-19T09:09:41.237Z,61.22
2019-05-19T09:10:46.355Z,61.16
2019-05-19T09:11:51.829Z,61.22
2019-05-19T09:12:57.282Z,61.20
2019-05-19T09:14:03.164Z,61.28
2019-05-19T09:15:08.728Z,61.25
2019-05-19T09:16:14.309Z,60.98
2019-05-19T09:17:19.268Z,60.78
2019-05-19T09:18:24.735Z,60.77
2019-05-19T09:19:29.860Z,60.50
2019-05-19T09:20:35.536Z,60.39
2019-05-19T09:21:40.527Z,60.43
2019-05-19T09:22:46.065Z,60.47
2019-05-19T09:23:51.514Z,60.36
2019-05-19T09:24:56.999Z,60.25
2019-05-19T09:26:01.976Z,60.33
2019-05-19T09:27:07.683Z,60.43
2019-05-19T09:28:12.704Z,60.24
2019-05-19T09:29:18.241Z,59.81
2019-05-19T09:30:23.264Z,59.40
2019-05-19T09:31:29.199Z,59.11
2019-05-19T09:32:34.243Z,58.72
2019-05-19T09:33:39.743Z,58.42
2019-05-19T09:34:44.680Z,58.15
2019-05-19T09:35:50.191Z,58.02
2019-05-19T09:36:55.187Z,57.86
2019-05-19T09:38:00.980Z,57.71
2019-05-19T09:39:07.131Z,57.78
2019-05-19T09:40:13.156Z,57.73
2019-05-19T09:41:18.093Z,57.62
2019-05-19T09:42:23.999Z,57.53
2019-05-19T09:43:28.975Z,57.46
2019-05-19T09:44:34.726Z,57.39
2019-05-19T09:45:39.653Z,57.19
2019-05-19T09:46:45.152Z,57.14
2019-05-19T09:47:50.348Z,57.16
2019-05-19T09:49:14.606Z,57.28
2019-05-19T09:50:19.972Z,57.43
2019-05-19T09:51:25.629Z,57.45
2019-05-19T09:52:30.681Z,57.40
2019-05-19T09:53:36.423Z,57.36
2019-05-19T09:54:45.466Z,57.35
2019-05-19T09:55:49.238Z,57.24
2019-05-19T09:56:54.181Z,57.07
2019-05-19T09:57:59.923Z,56.86
2019-05-19T09:59:05.019Z,56.69
2019-05-19T10:00:13.163Z,56.43
2019-05-19T10:01:18.097Z,56.04
2019-05-19T10:02:23.956Z,55.71
2019-05-19T10:03:28.880Z,55.45
2019-05-19T10:04:34.890Z,55.30
2019-05-19T10:05:40.092Z,54.90
2019-05-19T10:06:45.596Z,54.61
2019-05-19T10:07:50.780Z,54.18
2019-05-19T10:09:14.685Z,53.84
2019-05-19T10:10:22.969Z,53.53
2019-05-19T10:11:52.482Z,53.16
2019-05-19T10:12:57.426Z,52.74
2019-05-19T10:14:03.240Z,51.72
2019-05-19T10:15:09.053Z,51.32
2019-05-19T10:16:14.631Z,50.98
2019-05-19T10:17:20.049Z,50.71
2019-05-19T10:18:25.700Z,50.66
2019-05-19T10:19:30.866Z,50.71
2019-05-19T10:20:36.428Z,50.70
2019-05-19T10:21:41.461Z,50.63
2019-05-19T10:22:47.231Z,50.49
2019-05-19T10:23:52.164Z,50.34
2019-05-19T10:25:18.121Z,50.23
2019-05-19T10:26:04.463Z,50.09
2019-05-19T10:27:10.185Z,50.09
2019-05-19T10:28:15.252Z,50.03
2019-05-19T10:29:20.844Z,49.83
2019-05-19T10:30:25.841Z,49.70
2019-05-19T10:31:31.638Z,49.64
2019-05-19T10:32:37.281Z,49.60
2019-05-19T10:33:42.769Z,49.64
2019-05-19T10:34:47.712Z,49.62
2019-05-19T10:35:53.503Z,49.54
2019-05-19T10:36:58.671Z,49.54
2019-05-19T10:38:04.918Z,49.63
2019-05-19T10:39:09.951Z,49.67
2019-05-19T10:40:15.751Z,49.78
2019-05-19T10:41:20.833Z,49.89
2019-05-19T10:42:26.565Z,49.98
2019-05-19T10:43:31.772Z,50.12
2019-05-19T10:44:37.319Z,50.20
2019-05-19T10:45:44.004Z,50.29
2019-05-19T10:46:49.624Z,50.11
2019-05-19T10:47:54.577Z,49.70
2019-05-19T10:49:00.299Z,49.52
2019-05-19T10:50:05.361Z,49.37
2019-05-19T10:51:11.255Z,49.32
2019-05-19T10:52:16.876Z,49.35
2019-05-19T10:53:22.597Z,49.39
2019-05-19T10:54:27.603Z,49.26
2019-05-19T10:55:36.636Z,49.11
2019-05-19T10:56:39.912Z,49.07
2019-05-19T10:57:45.434Z,49.00
2019-05-19T10:58:50.445Z,49.04
2019-05-19T10:59:55.938Z,49.04
2019-05-19T11:01:00.921Z,48.95
2019-05-19T11:02:06.560Z,48.62
2019-05-19T11:03:11.556Z,48.22
2019-05-19T11:04:17.289Z,47.88
2019-05-19T11:05:22.578Z,47.69
2019-05-19T11:06:28.064Z,47.64
2019-05-19T11:07:33.255Z,47.78
2019-05-19T11:08:39.002Z,48.03
2019-05-19T11:09:44.504Z,48.27
2019-05-19T11:10:50.091Z,48.44
2019-05-19T11:11:55.072Z,48.61
2019-05-19T11:13:00.578Z,48.66
2019-05-19T11:14:05.659Z,48.44
2019-05-19T11:15:11.420Z,48.23
2019-05-19T11:16:16.476Z,48.03
2019-05-19T11:17:22.000Z,47.87
2019-05-19T11:18:27.297Z,47.75
2019-05-19T11:19:32.985Z,47.76
2019-05-19T11:20:38.516Z,47.60
2019-05-19T11:21:44.337Z,47.55
2019-05-19T11:22:49.257Z,47.40
2019-05-19T11:23:55.172Z,47.26
2019-05-19T11:25:00.422Z,47.23
2019-05-19T11:26:06.303Z,47.28
2019-05-19T11:27:11.553Z,47.37
2019-05-19T11:28:17.060Z,47.38
2019-05-19T11:29:22.304Z,47.24
2019-05-19T11:30:27.848Z,47.14
2019-05-19T11:31:33.139Z,47.09
2019-05-19T11:32:38.894Z,46.95
2019-05-19T11:33:43.827Z,46.86
2019-05-19T11:34:49.342Z,46.77
2019-05-19T11:35:54.302Z,46.69
2019-05-19T11:36:59.901Z,46.63
2019-05-19T11:38:05.147Z,46.36
2019-05-19T11:39:11.004Z,46.30
2019-05-19T11:40:16.055Z,46.19
2019-05-19T11:41:21.585Z,45.99
2019-05-19T11:42:26.509Z,45.92
2019-05-19T11:43:32.228Z,45.87
2019-05-19T11:44:37.406Z,45.89
2019-05-19T11:45:43.212Z,45.80
2019-05-19T11:46:48.186Z,45.68
2019-05-19T11:47:53.803Z,45.25
2019-05-19T11:48:59.037Z,45.25
2019-05-19T11:50:05.126Z,45.24
2019-05-19T11:51:10.139Z,45.26
2019-05-19T11:52:16.178Z,45.33
2019-05-19T11:53:21.624Z,45.44
2019-05-19T11:54:27.121Z,45.58
2019-05-19T11:55:32.525Z,45.62
2019-05-19T11:56:38.352Z,45.67
2019-05-19T11:57:43.317Z,45.76
2019-05-19T11:58:48.826Z,45.65
2019-05-19T11:59:54.316Z,45.53
2019-05-19T12:01:00.275Z,45.39
2019-05-19T12:02:05.275Z,45.39
2019-05-19T12:03:10.815Z,45.43
2019-05-19T12:04:15.758Z,45.42
2019-05-19T12:05:21.373Z,45.31
2019-05-19T12:06:38.535Z,45.35
2019-05-19T12:07:34.047Z,45.31
2019-05-19T12:08:39.306Z,45.25
2019-05-19T12:09:45.121Z,45.21
2019-05-19T12:10:50.088Z,45.19
2019-05-19T12:11:55.589Z,45.07
2019-05-19T12:13:00.685Z,44.92
2019-05-19T12:14:06.308Z,44.48
2019-05-19T12:15:11.763Z,44.39
2019-05-19T12:16:17.394Z,44.14
2019-05-19T12:17:22.738Z,43.91
2019-05-19T12:18:28.344Z,43.69
2019-05-19T12:19:33.365Z,43.73
2019-05-19T12:20:38.898Z,43.87
2019-05-19T12:21:44.243Z,43.94
2019-05-19T12:22:49.803Z,44.07
2019-05-19T12:23:55.077Z,44.02
2019-05-19T12:25:00.657Z,44.01
2019-05-19T12:26:06.904Z,44.03
2019-05-19T12:27:12.884Z,43.93
2019-05-19T12:28:18.065Z,43.66
2019-05-19T12:29:23.547Z,43.47
2019-05-19T12:30:28.628Z,43.31
2019-05-19T12:31:34.161Z,42.95
2019-05-19T12:32:39.449Z,42.78
2019-05-19T12:33:51.977Z,42.74
2019-05-19T12:34:51.897Z,42.76
2019-05-19T12:35:57.791Z,42.74
2019-05-19T12:37:02.695Z,42.63
2019-05-19T12:38:08.230Z,42.64
2019-05-19T12:39:13.494Z,42.62
2019-05-19T12:40:22.475Z,42.56
2019-05-19T12:41:25.813Z,42.50
2019-05-19T12:42:31.271Z,42.45
2019-05-19T12:43:36.281Z,42.37
2019-05-19T12:44:41.861Z,42.30
2019-05-19T12:45:46.800Z,42.13
2019-05-19T12:46:52.275Z,41.99
2019-05-19T12:47:57.433Z,41.96
2019-05-19T12:49:03.005Z,42.03
2019-05-19T12:50:08.513Z,42.01
2019-05-19T12:51:14.088Z,41.93
2019-05-19T12:52:19.142Z,41.87
2019-05-19T12:53:24.735Z,41.83
2019-05-19T12:54:30.164Z,41.91
2019-05-19T12:55:35.711Z,41.97
2019-05-19T12:56:40.947Z,41.96
2019-05-19T12:57:46.507Z,41.68
2019-05-19T12:58:51.509Z,41.46
2019-05-19T12:59:57.060Z,41.42
2019-05-19T13:01:01.997Z,41.30
2019-05-19T13:02:07.803Z,41.11
2019-05-19T13:03:12.714Z,40.95
2019-05-19T13:04:19.014Z,40.87
2019-05-19T13:05:24.027Z,40.69
2019-05-19T13:06:30.159Z,40.39
2019-05-19T13:07:35.179Z,40.17
2019-05-19T13:08:40.775Z,40.07
2019-05-19T13:09:46.031Z,40.03
2019-05-19T13:10:51.510Z,39.94
2019-05-19T13:11:56.667Z,39.88
2019-05-19T13:13:02.489Z,39.65
2019-05-19T13:14:07.609Z,39.32
2019-05-19T13:15:15.577Z,39.17
2019-05-19T13:16:20.073Z,39.06
2019-05-19T13:17:25.656Z,38.90
2019-05-19T13:18:30.849Z,38.86
2019-05-19T13:19:36.587Z,38.76
2019-05-19T13:20:41.533Z,38.84
2019-05-19T13:21:47.255Z,38.96
2019-05-19T13:22:52.154Z,38.97
2019-05-19T13:23:58.425Z,38.82
2019-05-19T13:25:03.439Z,38.72
2019-05-19T13:26:09.061Z,38.71
2019-05-19T13:27:14.016Z,38.75
2019-05-19T13:30:35.456Z,38.69
2019-05-19T13:31:40.984Z,38.85
2019-05-19T13:32:45.923Z,38.83
2019-05-19T13:33:51.608Z,38.72
2019-05-19T13:34:56.782Z,38.44
2019-05-19T13:36:02.322Z,38.29
2019-05-19T13:37:07.361Z,38.19
2019-05-19T13:38:13.070Z,38.11
2019-05-19T13:39:18.192Z,38.10
2019-05-19T13:40:23.820Z,38.09
2019-05-19T13:41:29.007Z,38.06
2019-05-19T13:42:34.443Z,38.11
2019-05-19T13:43:39.405Z,38.16
2019-05-19T13:44:45.098Z,38.13
2019-05-19T13:45:50.018Z,38.01
2019-05-19T13:46:55.715Z,37.98
2019-05-19T13:48:00.855Z,37.96
2019-05-19T13:49:06.368Z,37.99
2019-05-19T13:50:11.719Z,38.00
2019-05-19T13:51:17.167Z,37.98
2019-05-19T13:52:22.051Z,37.95
2019-05-19T13:53:27.743Z,37.94
2019-05-19T13:54:32.728Z,37.89
2019-05-19T13:55:38.497Z,37.89
2019-05-19T13:56:43.650Z,37.79
2019-05-19T13:57:49.178Z,37.67
2019-05-19T13:58:54.164Z,37.76
2019-05-19T13:59:59.857Z,37.88
2019-05-19T14:01:05.270Z,37.93
2019-05-19T14:02:10.791Z,37.97
2019-05-19T14:03:15.859Z,38.09
2019-05-19T14:04:21.320Z,38.40
2019-05-19T14:05:26.248Z,38.89
2019-05-19T14:06:31.826Z,39.38
2019-05-19T14:07:37.056Z,39.84
2019-05-19T14:08:42.772Z,40.37
2019-05-19T14:09:47.678Z,40.98
2019-05-19T14:10:53.145Z,41.94
2019-05-19T14:11:58.170Z,43.06
2019-05-19T14:13:03.714Z,44.78
2019-05-19T14:14:08.694Z,46.11
2019-05-19T14:15:14.665Z,47.05
2019-05-19T14:16:19.917Z,47.98
2019-05-19T14:17:25.452Z,48.96
2019-05-19T14:18:30.399Z,49.88
2019-05-19T14:19:35.909Z,50.55
2019-05-19T14:20:41.170Z,51.16
2019-05-19T14:21:46.791Z,51.66
2019-05-19T14:22:51.760Z,52.22
2019-05-19T14:23:57.230Z,52.65
2019-05-19T14:25:02.309Z,53.29
2019-05-19T14:26:07.991Z,53.67
2019-05-19T14:27:17.146Z,53.90
2019-05-19T14:28:20.408Z,54.11
2019-05-19T14:29:25.400Z,54.21
2019-05-19T14:30:30.906Z,54.35
2019-05-19T14:31:36.055Z,54.32
2019-05-19T14:32:41.550Z,54.53
2019-05-19T14:33:46.471Z,54.68
2019-05-19T14:34:52.168Z,54.86
2019-05-19T14:35:57.357Z,55.05
2019-05-19T14:37:02.926Z,55.16
2019-05-19T14:38:08.064Z,55.17
2019-05-19T14:39:13.550Z,55.30
2019-05-19T14:40:20.329Z,55.50